createdAt,value
2019-03-15T00:00:33.619Z,3.12
2019-03-15T00:03:22.296Z,3.14
2019-03-15T00:06:11.005Z,3.05
2019-03-15T00:08:59.536Z,2.86
2019-03-15T00:11:47.849Z,2.77
2019-03-15T00:14:38.468Z,2.57
2019-03-15T00:17:26.301Z,2.67
2019-03-15T00:20:14.796Z,2.38
2019-03-15T00:23:03.401Z,2.58
2019-03-15T00:25:55.170Z,2.54
2019-03-15T00:28:42.094Z,2.55
2019-03-15T00:31:30.677Z,2.50
2019-03-15T00:34:18.773Z,2.51
2019-03-15T00:37:06.762Z,2.60
2019-03-15T00:39:55.275Z,2.62
2019-03-15T00:42:43.907Z,2.51
2019-03-15T00:45:31.867Z,2.32
2019-03-15T00:48:20.883Z,2.34
2019-03-15T00:51:09.946Z,2.35
2019-03-15T00:53:58.791Z,2.32
2019-03-15T00:56:46.735Z,2.27
2019-03-15T00:59:35.331Z,2.21
2019-03-15T01:02:23.470Z,2.15
2019-03-15T01:05:12.163Z,2.20
2019-03-15T01:08:01.018Z,2.36
2019-03-15T01:10:49.659Z,2.30
2019-03-15T01:13:38.255Z,2.21
2019-03-15T01:16:27.866Z,2.08
2019-03-15T01:19:16.882Z,2.23
2019-03-15T01:22:05.304Z,2.18
2019-03-15T01:24:53.798Z,2.07
2019-03-15T01:27:42.081Z,2.16
2019-03-15T01:30:29.704Z,2.17
2019-03-15T01:33:18.555Z,1.89
2019-03-15T01:36:07.297Z,1.70
2019-03-15T01:38:56.297Z,1.85
2019-03-15T01:41:44.779Z,1.95
2019-03-15T01:44:33.220Z,2.08
2019-03-15T01:47:21.757Z,2.12
2019-03-15T01:50:10.471Z,2.26
2019-03-15T01:52:58.805Z,2.34
2019-03-15T01:55:46.480Z,2.21
2019-03-15T01:58:34.247Z,2.16
2019-03-15T02:01:22.669Z,2.13
2019-03-15T02:04:10.774Z,2.17
2019-03-15T02:06:59.244Z,2.02
2019-03-15T02:09:47.946Z,2.14
2019-03-15T02:12:36.210Z,2.23
2019-03-15T02:15:24.690Z,2.22
2019-03-15T02:18:13.295Z,2.24
2019-03-15T02:21:01.812Z,2.26
2019-03-15T02:23:50.195Z,2.27
2019-03-15T02:26:38.651Z,2.30
2019-03-15T02:29:27.113Z,2.30
2019-03-15T02:32:15.801Z,2.32
2019-03-15T02:35:04.144Z,2.24
2019-03-15T02:37:52.995Z,2.04
2019-03-15T02:40:41.730Z,2.21
2019-03-15T02:43:29.815Z,2.33
2019-03-15T02:46:18.295Z,2.37
2019-03-15T02:49:06.295Z,2.43
2019-03-15T02:51:54.820Z,2.44
2019-03-15T02:54:43.004Z,2.39
2019-03-15T02:57:31.469Z,2.47
2019-03-15T03:00:19.669Z,2.51
2019-03-15T03:03:08.262Z,2.48
2019-03-15T03:05:56.600Z,2.39
2019-03-15T03:08:44.450Z,2.53
2019-03-15T03:11:32.942Z,2.42
2019-03-15T03:14:21.474Z,2.51
2019-03-15T03:17:09.693Z,2.37
2019-03-15T03:19:58.913Z,2.32
2019-03-15T03:22:47.403Z,2.23
2019-03-15T03:25:36.077Z,2.31
2019-03-15T03:28:24.735Z,2.19
2019-03-15T03:31:15.507Z,2.16
2019-03-15T03:34:01.966Z,2.15
2019-03-15T03:36:50.072Z,2.12
2019-03-15T03:39:38.249Z,2.05
2019-03-15T03:42:27.522Z,1.99
2019-03-15T03:45:15.905Z,1.97
2019-03-15T03:48:04.443Z,2.02
2019-03-15T03:50:52.856Z,2.03
2019-03-15T03:53:41.548Z,2.17
2019-03-15T03:56:29.735Z,2.16
2019-03-15T03:59:20.007Z,2.03
2019-03-15T04:02:08.496Z,1.95
2019-03-15T04:04:56.599Z,2.01
2019-03-15T04:07:45.358Z,1.82
2019-03-15T04:10:34.167Z,1.83
2019-03-15T04:13:21.946Z,1.84
2019-03-15T04:16:09.599Z,1.57
2019-03-15T04:18:58.872Z,1.55
2019-03-15T04:21:46.842Z,1.56
2019-03-15T04:24:34.638Z,1.56
2019-03-15T04:27:23.089Z,1.41
2019-03-15T04:30:11.629Z,1.37
2019-03-15T04:33:00.781Z,1.41
2019-03-15T04:35:48.982Z,1.47
2019-03-15T04:38:37.315Z,1.47
2019-03-15T04:41:25.751Z,1.49
2019-03-15T04:44:13.724Z,1.43
2019-03-15T04:47:02.272Z,1.33
2019-03-15T04:49:50.874Z,1.30
2019-03-15T04:52:38.841Z,1.57
2019-03-15T04:55:26.981Z,1.60
2019-03-15T04:58:15.272Z,1.50
2019-03-15T05:01:03.823Z,1.53
2019-03-15T05:03:52.381Z,1.43
2019-03-15T05:06:40.254Z,1.31
2019-03-15T05:09:28.725Z,1.41
2019-03-15T05:12:17.014Z,1.44
2019-03-15T05:15:05.644Z,1.40
2019-03-15T05:17:54.199Z,1.29
2019-03-15T05:20:42.384Z,1.38
2019-03-15T05:23:32.238Z,1.49
2019-03-15T05:26:20.419Z,1.69
2019-03-15T05:29:08.536Z,1.87
2019-03-15T05:31:56.308Z,2.13
2019-03-15T05:34:44.936Z,2.46
2019-03-15T05:37:33.469Z,2.61
2019-03-15T05:40:24.582Z,2.80
2019-03-15T05:43:13.043Z,2.94
2019-03-15T05:46:01.728Z,3.10
2019-03-15T05:48:54.284Z,3.31
2019-03-15T05:51:43.692Z,3.20
2019-03-15T05:54:31.850Z,3.00
2019-03-15T05:57:20.508Z,3.62
2019-03-15T06:00:09.123Z,3.60
2019-03-15T06:02:57.385Z,3.89
2019-03-15T06:05:45.169Z,4.40
2019-03-15T06:08:34.309Z,4.42
2019-03-15T06:11:22.796Z,4.59
2019-03-15T06:14:11.333Z,4.69
2019-03-15T06:16:59.814Z,4.59
2019-03-15T06:19:48.391Z,4.72
2019-03-15T06:22:37.001Z,4.72
2019-03-15T06:25:25.084Z,4.75
2019-03-15T06:28:13.607Z,4.92
2019-03-15T06:31:03.291Z,5.07
2019-03-15T06:33:51.580Z,4.94
2019-03-15T06:36:40.486Z,5.06
2019-03-15T06:39:29.113Z,5.24
2019-03-15T06:42:17.591Z,5.42
2019-03-15T06:45:06.707Z,5.34
2019-03-15T06:47:55.052Z,5.22
2019-03-15T06:50:43.587Z,5.15
2019-03-15T06:53:31.880Z,4.75
2019-03-15T06:56:20.092Z,4.69
2019-03-15T06:59:08.616Z,4.47
2019-03-15T07:01:56.924Z,4.26
2019-03-15T07:04:45.056Z,4.13
2019-03-15T07:07:33.599Z,3.76
2019-03-15T07:10:21.812Z,3.78
2019-03-15T07:13:10.592Z,3.95
2019-03-15T07:15:59.533Z,4.12
2019-03-15T07:18:47.647Z,4.19
2019-03-15T07:21:37.005Z,4.10
2019-03-15T07:24:25.841Z,4.27
2019-03-15T07:27:14.563Z,4.37
2019-03-15T07:30:03.201Z,4.42
2019-03-15T07:32:51.388Z,4.63
2019-03-15T07:35:39.876Z,4.57
2019-03-15T07:38:28.948Z,4.93
2019-03-15T07:41:17.609Z,4.84
2019-03-15T07:44:05.284Z,4.91
2019-03-15T07:46:53.076Z,5.22
2019-03-15T07:49:41.111Z,5.62
2019-03-15T07:52:29.625Z,6.03
2019-03-15T07:55:18.226Z,5.73
2019-03-15T07:58:07.470Z,5.73
2019-03-15T08:00:55.995Z,5.89
2019-03-15T08:03:44.441Z,6.17
2019-03-15T08:06:35.107Z,6.54
2019-03-15T08:09:22.524Z,7.43
2019-03-15T08:12:11.070Z,7.45
2019-03-15T08:14:59.530Z,7.18
2019-03-15T08:17:47.679Z,7.14
2019-03-15T08:20:36.750Z,7.52
2019-03-15T08:23:24.577Z,8.11
2019-03-15T08:26:12.977Z,8.56
2019-03-15T08:29:00.738Z,8.84
2019-03-15T08:31:48.600Z,8.01
2019-03-15T08:34:37.037Z,7.87
2019-03-15T08:37:25.447Z,8.26
2019-03-15T08:40:13.676Z,8.32
2019-03-15T08:43:02.508Z,8.86
2019-03-15T08:45:51.038Z,9.14
2019-03-15T08:48:39.212Z,8.77
2019-03-15T08:51:26.960Z,9.01
2019-03-15T08:54:15.126Z,9.32
2019-03-15T08:57:03.472Z,8.66
2019-03-15T08:59:56.988Z,8.73
2019-03-15T09:02:41.439Z,8.38
2019-03-15T09:05:29.673Z,8.43
2019-03-15T09:08:17.814Z,8.26
2019-03-15T09:10:47.638Z,8.30
2019-03-15T09:13:17.868Z,8.29
2019-03-15T09:15:48.809Z,8.00
2019-03-15T09:18:18.729Z,8.40
2019-03-15T09:20:48.576Z,8.97
2019-03-15T09:23:18.510Z,9.04
2019-03-15T09:25:48.334Z,9.21
2019-03-15T09:28:18.164Z,9.49
2019-03-15T09:30:48.460Z,9.88
2019-03-15T09:33:19.402Z,9.82
2019-03-15T09:35:49.229Z,9.45
2019-03-15T09:38:19.337Z,9.20
2019-03-15T09:40:49.363Z,9.38
2019-03-15T09:43:19.191Z,9.28
2019-03-15T09:45:49.115Z,9.36
2019-03-15T09:48:18.964Z,9.64
2019-03-15T09:50:51.580Z,9.26
2019-03-15T09:53:20.343Z,9.45
2019-03-15T09:55:50.540Z,9.35
2019-03-15T09:58:20.360Z,9.48
2019-03-15T10:00:50.295Z,9.11
2019-03-15T10:03:22.426Z,9.74
2019-03-15T10:05:51.569Z,9.51
2019-03-15T10:08:26.396Z,9.48
2019-03-15T10:10:53.384Z,9.41
2019-03-15T10:13:23.200Z,9.46
2019-03-15T10:15:55.559Z,9.30
2019-03-15T10:18:24.552Z,9.73
2019-03-15T10:20:54.367Z,9.88
2019-03-15T10:23:24.591Z,9.89
2019-03-15T10:25:54.415Z,10.47
2019-03-15T10:28:24.682Z,10.47
2019-03-15T10:30:54.702Z,10.21
2019-03-15T10:33:24.676Z,10.24
2019-03-15T10:35:54.527Z,10.13
2019-03-15T10:38:24.376Z,10.33
2019-03-15T10:40:54.203Z,10.87
2019-03-15T10:43:24.055Z,10.97
2019-03-15T10:45:53.975Z,10.63
2019-03-15T10:48:25.425Z,10.61
2019-03-15T10:50:55.675Z,10.74
2019-03-15T10:53:25.542Z,10.06
2019-03-15T10:56:00.482Z,9.83
2019-03-15T10:58:29.817Z,10.01
2019-03-15T11:00:59.850Z,10.09
2019-03-15T11:03:29.668Z,9.94
2019-03-15T11:05:59.874Z,9.96
2019-03-15T11:08:29.743Z,9.67
2019-03-15T11:11:00.330Z,9.89
2019-03-15T11:13:30.151Z,10.21
2019-03-15T11:16:00.046Z,9.80
2019-03-15T11:18:29.856Z,9.80
2019-03-15T11:20:59.678Z,9.68
2019-03-15T11:23:29.616Z,9.74
2019-03-15T11:26:12.669Z,9.92
2019-03-15T11:28:30.891Z,9.93
2019-03-15T11:31:00.919Z,9.73
2019-03-15T11:33:30.787Z,9.85
2019-03-15T11:36:01.019Z,10.07
2019-03-15T11:38:31.435Z,10.08
2019-03-15T11:41:01.788Z,10.19
2019-03-15T11:43:31.624Z,10.07
2019-03-15T11:46:01.880Z,9.67
2019-03-15T11:48:32.161Z,9.86
2019-03-15T11:51:01.981Z,9.98
2019-03-15T11:53:32.288Z,10.13
2019-03-15T11:56:02.520Z,10.08
2019-03-15T11:58:32.348Z,10.33
2019-03-15T12:01:05.324Z,10.38
2019-03-15T12:03:35.179Z,10.53
2019-03-15T12:06:05.025Z,10.57
2019-03-15T12:08:35.326Z,10.34
2019-03-15T12:11:05.256Z,10.31
2019-03-15T12:13:35.261Z,9.64
2019-03-15T12:16:05.132Z,10.15
2019-03-15T12:18:34.971Z,10.50
2019-03-15T12:21:04.816Z,10.56
2019-03-15T12:23:34.685Z,10.54
2019-03-15T12:26:04.534Z,10.65
2019-03-15T12:28:34.358Z,11.15
2019-03-15T12:31:04.707Z,10.80
2019-03-15T12:33:34.652Z,10.54
2019-03-15T12:36:04.506Z,10.42
2019-03-15T12:38:34.397Z,10.49
2019-03-15T12:41:04.293Z,10.43
2019-03-15T12:43:34.552Z,10.97
2019-03-15T12:46:04.830Z,10.99
2019-03-15T12:48:34.665Z,11.19
2019-03-15T12:51:05.068Z,10.72
2019-03-15T12:53:34.953Z,11.01
2019-03-15T12:56:05.510Z,11.10
2019-03-15T12:58:35.347Z,11.19
2019-03-15T13:01:05.615Z,11.67
2019-03-15T13:03:35.443Z,11.13
2019-03-15T13:06:05.290Z,10.72
2019-03-15T13:08:35.696Z,10.62
2019-03-15T13:11:05.532Z,11.01
2019-03-15T13:13:35.366Z,10.88
2019-03-15T13:16:05.711Z,10.71
2019-03-15T13:18:35.557Z,10.72
2019-03-15T13:21:05.409Z,10.89
2019-03-15T13:23:35.277Z,11.39
2019-03-15T13:26:05.202Z,11.35
2019-03-15T13:28:35.389Z,11.14
2019-03-15T13:31:05.317Z,11.23
2019-03-15T13:33:35.491Z,11.12
2019-03-15T13:36:05.515Z,10.82
2019-03-15T13:38:35.371Z,11.13
2019-03-15T13:41:23.709Z,11.70
2019-03-15T13:44:11.977Z,11.47
2019-03-15T13:47:01.621Z,11.78
2019-03-15T13:49:50.988Z,12.54
2019-03-15T13:52:40.711Z,12.90
2019-03-15T13:55:30.659Z,13.16
2019-03-15T13:58:20.224Z,12.93
2019-03-15T14:01:09.728Z,13.22
2019-03-15T14:03:59.433Z,14.02
2019-03-15T14:06:49.281Z,13.49
2019-03-15T14:09:38.652Z,14.07
2019-03-15T14:12:27.663Z,14.86
2019-03-15T14:15:17.313Z,13.67
2019-03-15T14:18:07.205Z,13.31
2019-03-15T14:20:56.604Z,13.68
2019-03-15T14:23:46.165Z,13.94
2019-03-15T14:26:35.577Z,13.41
2019-03-15T14:29:25.024Z,13.40
2019-03-15T14:32:14.042Z,14.18
2019-03-15T14:35:03.607Z,14.29
2019-03-15T14:37:53.215Z,13.88
2019-03-15T14:40:24.663Z,14.12
2019-03-15T14:42:58.753Z,13.65
2019-03-15T14:45:29.750Z,13.74
2019-03-15T14:48:00.777Z,13.49
2019-03-15T14:50:32.117Z,13.08
2019-03-15T14:53:03.122Z,12.04
2019-03-15T14:55:34.210Z,11.78
2019-03-15T14:58:04.591Z,11.07
2019-03-15T15:00:34.521Z,10.38
2019-03-15T15:03:04.489Z,9.93
2019-03-15T15:05:34.313Z,9.69
2019-03-15T15:08:04.152Z,9.63
2019-03-15T15:10:34.521Z,9.42
2019-03-15T15:13:04.700Z,9.26
2019-03-15T15:15:34.627Z,9.16
2019-03-15T15:18:04.568Z,9.14
2019-03-15T15:20:37.640Z,9.00
2019-03-15T15:23:07.464Z,8.93
2019-03-15T15:25:37.706Z,8.77
2019-03-15T15:28:07.648Z,8.66
2019-03-15T15:30:37.473Z,8.57
2019-03-15T15:33:07.396Z,8.58
2019-03-15T15:35:37.400Z,8.56
2019-03-15T15:38:07.798Z,8.51
2019-03-15T15:40:38.293Z,8.37
2019-03-15T15:43:08.976Z,8.38
2019-03-15T15:45:38.843Z,8.47
2019-03-15T15:48:09.010Z,8.40
2019-03-15T15:50:39.335Z,8.44
2019-03-15T15:53:11.110Z,8.35
2019-03-15T15:55:40.696Z,8.43
2019-03-15T15:58:17.878Z,8.43
2019-03-15T16:00:42.160Z,8.27
2019-03-15T16:03:12.037Z,8.19
2019-03-15T16:05:41.875Z,8.19
2019-03-15T16:08:11.902Z,8.05
2019-03-15T16:10:42.356Z,8.03
2019-03-15T16:13:17.183Z,7.97
2019-03-15T16:15:44.145Z,7.80
2019-03-15T16:18:14.421Z,7.75
2019-03-15T16:20:44.247Z,7.68
2019-03-15T16:23:14.189Z,7.69
2019-03-15T16:25:46.594Z,7.54
2019-03-15T16:28:16.421Z,7.40
2019-03-15T16:30:46.309Z,7.36
2019-03-15T16:33:16.179Z,7.36
2019-03-15T16:35:46.167Z,7.26
2019-03-15T16:38:16.519Z,7.12
2019-03-15T16:40:46.337Z,7.06
2019-03-15T16:43:16.206Z,7.03
2019-03-15T16:45:46.934Z,6.98
2019-03-15T16:48:16.776Z,6.88
2019-03-15T16:50:47.042Z,6.78
2019-03-15T16:53:16.980Z,6.77
2019-03-15T16:55:46.883Z,6.72
2019-03-15T16:58:17.062Z,6.60
2019-03-15T17:00:46.937Z,6.68
2019-03-15T17:03:16.784Z,6.66
2019-03-15T17:05:46.663Z,6.61
2019-03-15T17:08:16.556Z,6.49
2019-03-15T17:10:46.487Z,6.44
2019-03-15T17:13:16.310Z,6.39
2019-03-15T17:15:46.319Z,6.38
2019-03-15T17:18:17.102Z,6.23
2019-03-15T17:20:46.899Z,6.26
2019-03-15T17:23:16.822Z,6.28
2019-03-15T17:25:46.763Z,6.23
2019-03-15T17:28:16.582Z,6.17
2019-03-15T17:30:48.190Z,6.09
2019-03-15T17:33:20.389Z,6.06
2019-03-15T17:35:50.336Z,6.06
2019-03-15T17:38:20.222Z,6.01
2019-03-15T17:40:50.054Z,5.98
2019-03-15T17:43:19.879Z,5.90
2019-03-15T17:45:50.265Z,5.79
2019-03-15T17:48:20.179Z,5.72
2019-03-15T17:50:50.023Z,5.61
2019-03-15T17:53:19.888Z,5.70
2019-03-15T17:56:08.073Z,5.53
2019-03-15T17:58:38.101Z,5.39
2019-03-15T18:01:08.438Z,5.17
2019-03-15T18:03:40.228Z,5.03
2019-03-15T18:06:10.664Z,4.97
2019-03-15T18:08:40.525Z,4.87
2019-03-15T18:11:11.078Z,5.19
2019-03-15T18:13:40.982Z,5.27
2019-03-15T18:16:10.887Z,5.41
2019-03-15T18:18:40.761Z,5.47
2019-03-15T18:21:11.137Z,5.54
2019-03-15T18:23:43.305Z,5.52
2019-03-15T18:26:13.213Z,5.64
2019-03-15T18:28:43.084Z,5.89
2019-03-15T18:31:12.908Z,6.07
2019-03-15T18:33:42.804Z,6.13
2019-03-15T18:36:14.268Z,6.23
2019-03-15T18:38:44.113Z,6.27
2019-03-15T18:41:15.127Z,6.40
2019-03-15T18:43:45.067Z,6.38
2019-03-15T18:46:14.886Z,6.33
2019-03-15T18:48:44.737Z,6.39
2019-03-15T18:51:15.031Z,6.43
2019-03-15T18:53:45.769Z,6.46
2019-03-15T18:56:16.419Z,6.45
2019-03-15T18:58:46.417Z,6.53
2019-03-15T19:01:17.471Z,6.52
2019-03-15T19:03:47.341Z,6.42
2019-03-15T19:06:17.423Z,6.38
2019-03-15T19:08:47.263Z,6.38
2019-03-15T19:11:17.113Z,6.37
2019-03-15T19:13:47.066Z,6.36
2019-03-15T19:16:20.339Z,6.21
2019-03-15T19:18:49.240Z,6.11
2019-03-15T19:21:19.192Z,6.11
2019-03-15T19:23:49.507Z,6.08
2019-03-15T19:26:19.349Z,6.06
2019-03-15T19:28:50.779Z,5.87
2019-03-15T19:31:20.643Z,5.77
2019-03-15T19:33:50.890Z,5.64
2019-03-15T19:36:21.165Z,5.62
2019-03-15T19:38:51.004Z,5.46
2019-03-15T19:41:21.398Z,5.35
2019-03-15T19:43:51.280Z,5.35
2019-03-15T19:46:21.941Z,5.25
2019-03-15T19:48:52.245Z,5.14
2019-03-15T19:51:24.046Z,5.13
2019-03-15T19:53:54.796Z,5.23
2019-03-15T19:56:24.781Z,5.33
2019-03-15T19:58:55.465Z,5.31
2019-03-15T20:01:31.047Z,5.20
2019-03-15T20:04:02.801Z,5.20
2019-03-15T20:06:35.420Z,5.16
2019-03-15T20:09:06.884Z,5.16
2019-03-15T20:11:40.002Z,5.04
2019-03-15T20:14:10.256Z,5.03
2019-03-15T20:16:41.251Z,5.04
2019-03-15T20:19:16.277Z,5.04
2019-03-15T20:21:47.994Z,5.02
2019-03-15T20:24:18.181Z,4.97
2019-03-15T20:26:48.842Z,4.92
2019-03-15T20:29:22.451Z,5.05
2019-03-15T20:31:55.638Z,5.05
2019-03-15T20:34:25.787Z,5.01
2019-03-15T20:36:56.161Z,4.98
2019-03-15T20:39:29.730Z,4.89
2019-03-15T20:42:01.739Z,4.97
2019-03-15T20:44:32.184Z,4.98
2019-03-15T20:47:03.127Z,4.92
2019-03-15T20:49:37.464Z,4.87
2019-03-15T20:52:13.886Z,4.82
2019-03-15T20:54:46.854Z,4.71
2019-03-15T20:57:24.757Z,4.63
2019-03-15T21:00:18.041Z,4.65
2019-03-15T21:03:06.440Z,4.60
2019-03-15T21:05:54.524Z,4.41
2019-03-15T21:08:47.211Z,4.26
2019-03-15T21:11:34.795Z,4.24
2019-03-15T21:14:23.026Z,4.23
2019-03-15T21:17:12.145Z,4.20
2019-03-15T21:20:00.380Z,4.15
2019-03-15T21:22:48.954Z,4.29
2019-03-15T21:25:37.039Z,4.27
2019-03-15T21:28:25.669Z,4.17
2019-03-15T21:31:17.614Z,4.15
2019-03-15T21:34:06.476Z,4.08
2019-03-15T21:36:58.786Z,3.80
2019-03-15T21:39:46.774Z,3.78
2019-03-15T21:42:35.086Z,3.72
2019-03-15T21:45:23.615Z,3.51
2019-03-15T21:48:11.705Z,3.39
2019-03-15T21:50:59.811Z,3.24
2019-03-15T21:53:47.711Z,3.18
2019-03-15T21:56:36.084Z,3.17
2019-03-15T21:59:24.482Z,3.15
2019-03-15T22:02:12.940Z,3.25
2019-03-15T22:05:01.409Z,3.21
2019-03-15T22:07:50.644Z,3.01
2019-03-15T22:10:39.078Z,2.94
2019-03-15T22:13:27.285Z,2.90
2019-03-15T22:16:14.884Z,2.88
2019-03-15T22:19:03.275Z,2.76
2019-03-15T22:21:51.165Z,2.90
2019-03-15T22:24:40.084Z,3.04
2019-03-15T22:27:28.249Z,3.02
2019-03-15T22:30:16.973Z,2.93
2019-03-15T22:33:05.577Z,3.04
2019-03-15T22:35:53.811Z,3.10
2019-03-15T22:38:41.649Z,3.05
2019-03-15T22:41:30.226Z,3.01
2019-03-15T22:44:19.175Z,2.72
2019-03-15T22:47:07.712Z,2.67
2019-03-15T22:49:56.237Z,2.44
2019-03-15T22:52:44.368Z,2.41
2019-03-15T22:55:32.939Z,2.32
2019-03-15T22:58:21.139Z,2.15
2019-03-15T23:01:09.796Z,2.25
2019-03-15T23:03:57.948Z,2.35
2019-03-15T23:06:46.284Z,2.36
2019-03-15T23:09:34.499Z,2.35
2019-03-15T23:12:23.034Z,2.37
2019-03-15T23:15:11.565Z,2.39
2019-03-15T23:18:00.024Z,2.43
2019-03-15T23:20:47.972Z,2.42
2019-03-15T23:23:36.176Z,2.32
2019-03-15T23:26:23.728Z,2.35
2019-03-15T23:29:12.579Z,2.19
2019-03-15T23:32:00.984Z,2.16
2019-03-15T23:34:49.991Z,2.05
2019-03-15T23:37:38.488Z,1.50
2019-03-15T23:40:26.284Z,1.63
2019-03-15T23:43:14.537Z,1.72
2019-03-15T23:46:02.618Z,1.77
2019-03-15T23:48:50.784Z,1.81
2019-03-15T23:51:39.281Z,1.77
2019-03-15T23:54:27.811Z,1.72
2019-03-15T23:57:16.354Z,1.71
